Time;durP1;ratioP1;P1;durP2;ratioP2;P2;SDS_P1;SDS_P2;PMS_P1;PMS_P2;Temp;Humidity;BMP_temperature;BMP_pressure;BME280_temperature;BME280_humidity;BME280_pressure;Samples;Min_cycle;Max_cycle;Signal;HPM_P1;HPM_P2
2024/01/11 00:01:15;;;;;;;180.30;62.33;;;;;;;7.89;nan;99277.19;5075499;28;20052;-70
2024/01/11 00:03:45;;;;;;;171.38;61.97;;;;;;;7.80;nan;99278.97;5086619;28;20052;-71
2024/01/11 00:06:14;;;;;;;167.18;59.70;;;;;;;7.74;nan;99278.81;5085092;28;20075;-71
2024/01/11 00:08:44;;;;;;;175.07;61.13;;;;;;;7.50;nan;99280.38;5079625;28;20051;-71
2024/01/11 00:11:13;;;;;;;164.48;60.83;;;;;;;7.43;nan;99279.34;5069874;28;20047;-71
2024/01/11 00:13:45;;;;;;;172.80;59.90;;;;;;;7.43;nan;99276.72;5076519;28;20714;-70
2024/01/11 00:16:15;;;;;;;174.48;64.50;;;;;;;7.22;nan;99279.72;5070932;28;20052;-69
2024/01/11 00:18:44;;;;;;;171.70;59.20;;;;;;;7.19;nan;99287.13;5079761;28;20456;-70
2024/01/11 00:21:14;;;;;;;191.15;65.25;;;;;;;7.27;nan;99284.53;5059416;28;20785;-70
2024/01/11 00:23:44;;;;;;;178.75;61.22;;;;;;;7.17;nan;99276.75;5065835;28;20514;-69
2024/01/11 00:26:13;;;;;;;167.70;60.03;;;;;;;7.23;nan;99280.56;5057694;28;20064;-70
2024/01/11 00:28:46;;;;;;;178.00;61.30;;;;;;;7.27;nan;99283.69;5066571;28;20048;-71
2024/01/11 00:31:15;;;;;;;163.70;59.78;;;;;;;7.27;nan;99291.59;5073126;28;20756;-71
2024/01/11 00:33:44;;;;;;;151.02;56.58;;;;;;;7.28;nan;99294.09;5072265;28;20054;-70
2024/01/11 00:36:20;;;;;;;155.63;58.58;;;;;;;7.23;nan;99294.56;5075171;28;20048;-70
2024/01/11 00:38:50;;;;;;;160.27;59.30;;;;;;;7.20;nan;99294.06;5079557;28;20044;-71
2024/01/11 00:41:20;;;;;;;177.38;63.05;;;;;;;7.06;nan;99298.09;5090772;28;20048;-71
2024/01/11 00:43:50;;;;;;;177.77;59.70;;;;;;;7.11;nan;99290.56;5084455;28;20079;-71
2024/01/11 00:46:19;;;;;;;169.63;62.03;;;;;;;7.12;nan;99291.38;5069987;28;20079;-70
2024/01/11 00:48:49;;;;;;;176.43;61.25;;;;;;;7.16;nan;99288.28;5076811;28;20036;-70
2024/01/11 00:51:22;;;;;;;176.80;62.55;;;;;;;7.38;nan;99283.44;5067673;28;20049;-70
2024/01/11 00:53:51;;;;;;;169.18;61.10;;;;;;;7.24;nan;99300.66;5067423;28;20089;-70
2024/01/11 00:56:22;;;;;;;184.52;62.92;;;;;;;7.44;nan;99307.34;5093621;28;20052;-70
2024/01/11 00:58:52;;;;;;;176.02;61.70;;;;;;;7.47;nan;99298.31;5085332;28;20047;-71
2024/01/11 01:01:22;;;;;;;180.88;62.20;;;;;;;7.23;nan;99297.19;5087515;28;20131;-69
2024/01/11 01:03:51;;;;;;;180.90;63.40;;;;;;;7.06;nan;99305.16;5054279;28;20739;-71
2024/01/11 01:06:21;;;;;;;174.82;62.38;;;;;;;7.17;nan;99299.63;5088482;28;20105;-70
2024/01/11 01:08:51;;;;;;;174.02;61.38;;;;;;;7.15;nan;99296.34;5086436;28;20508;-70
2024/01/11 01:11:20;;;;;;;175.55;60.22;;;;;;;7.14;nan;99300.78;5087007;28;20127;-70
2024/01/11 01:13:50;;;;;;;164.43;60.28;;;;;;;7.10;nan;99295.97;5087667;28;20563;-71
2024/01/11 01:16:19;;;;;;;181.15;62.30;;;;;;;7.19;nan;99301.13;5073041;28;20051;-71
2024/01/11 01:18:49;;;;;;;177.80;61.92;;;;;;;7.45;nan;99297.63;5084205;28;20349;-70
2024/01/11 01:21:18;;;;;;;177.45;62.38;;;;;;;7.78;nan;99307.34;5090487;28;20055;-70
2024/01/11 01:23:48;;;;;;;177.93;61.22;;;;;;;8.06;nan;99315.78;5099319;28;20047;-71
2024/01/11 01:26:17;;;;;;;161.05;59.15;;;;;;;7.77;nan;99315.38;5094039;28;20186;-71
2024/01/11 01:28:47;;;;;;;183.88;62.17;;;;;;;7.58;nan;99319.09;5079116;28;20052;-71
2024/01/11 01:31:16;;;;;;;190.15;62.60;;;;;;;7.50;nan;99317.25;5083027;28;20105;-70
2024/01/11 01:33:45;;;;;;;187.85;63.58;;;;;;;7.37;nan;99316.03;5072859;28;20090;-70
2024/01/11 01:36:19;;;;;;;188.82;63.75;;;;;;;7.39;nan;99317.53;5073095;28;20089;-71
2024/01/11 01:38:48;;;;;;;190.27;64.43;;;;;;;7.44;nan;99317.03;5087345;28;20135;-71
2024/01/11 01:41:18;;;;;;;193.38;65.38;;;;;;;7.69;nan;99329.38;5090191;28;20810;-70
2024/01/11 01:43:47;;;;;;;196.13;66.32;;;;;;;7.63;nan;99320.28;5073475;28;20050;-70
2024/01/11 01:46:23;;;;;;;200.52;66.68;;;;;;;7.82;nan;99335.03;5092501;28;20062;-70
2024/01/11 01:48:57;;;;;;;223.32;69.88;;;;;;;7.68;nan;99335.63;5079945;28;20055;-73
2024/01/11 01:51:30;;;;;;;208.18;68.40;;;;;;;7.62;nan;99339.72;5079668;28;20491;-70
2024/01/11 01:54:01;;;;;;;206.80;67.40;;;;;;;7.51;nan;99336.53;5081293;28;20040;-70
2024/01/11 01:56:31;;;;;;;206.32;64.57;;;;;;;7.50;nan;99343.63;5066310;28;20044;-70
2024/01/11 01:59:02;;;;;;;207.32;66.68;;;;;;;7.30;nan;99342.19;5078824;28;20055;-70
2024/01/11 02:01:32;;;;;;;206.82;68.25;;;;;;;7.53;nan;99345.09;5081408;28;20055;-70
2024/01/11 02:04:03;;;;;;;213.80;66.43;;;;;;;7.44;nan;99349.50;5078959;28;20071;-70
2024/01/11 02:06:34;;;;;;;205.63;69.43;;;;;;;7.36;nan;99341.56;5081315;28;20128;-70
2024/01/11 02:09:05;;;;;;;182.30;63.90;;;;;;;7.60;nan;99344.34;5078947;28;20044;-70
2024/01/11 02:11:34;;;;;;;188.43;64.03;;;;;;;7.87;nan;99356.47;5084908;28;20048;-69
2024/01/11 02:14:04;;;;;;;190.10;63.45;;;;;;;8.00;nan;99361.28;5081026;28;20588;-69
2024/01/11 02:16:34;;;;;;;195.27;64.32;;;;;;;7.83;nan;99362.22;5094005;28;20127;-70
2024/01/11 02:19:07;;;;;;;209.48;66.75;;;;;;;7.74;nan;99369.28;5084536;28;20051;-70
2024/01/11 02:21:36;;;;;;;204.60;67.03;;;;;;;7.90;nan;99369.34;5091510;28;20582;-69
2024/01/11 02:24:07;;;;;;;214.95;68.72;;;;;;;7.83;nan;99370.97;5093155;28;20044;-70
2024/01/11 02:26:37;;;;;;;199.13;66.47;;;;;;;7.59;nan;99373.47;5084519;28;20059;-70
2024/01/11 02:29:07;;;;;;;195.15;65.53;;;;;;;7.46;nan;99388.88;5086710;28;20040;-70
2024/01/11 02:31:36;;;;;;;206.32;69.03;;;;;;;7.62;nan;99383.69;5085288;28;20452;-70
2024/01/11 02:34:05;;;;;;;216.23;69.13;;;;;;;7.54;nan;99387.13;5087069;28;20160;-70
2024/01/11 02:36:35;;;;;;;199.90;65.40;;;;;;;7.59;nan;99399.81;5069549;28;20135;-70
2024/01/11 02:39:05;;;;;;;197.77;64.90;;;;;;;7.82;nan;99411.50;5082663;28;20539;-70
2024/01/11 02:41:37;;;;;;;198.00;64.22;;;;;;;7.83;nan;99412.31;5068316;28;20040;-70
2024/01/11 02:44:07;;;;;;;195.07;65.13;;;;;;;7.84;nan;99414.78;5090648;28;20134;-71
2024/01/11 02:46:36;;;;;;;194.93;67.75;;;;;;;7.81;nan;99427.47;5078795;28;20711;-69
2024/01/11 02:49:06;;;;;;;199.68;63.78;;;;;;;7.52;nan;99433.06;5078789;28;20056;-71
2024/01/11 02:51:36;;;;;;;200.35;65.45;;;;;;;7.39;nan;99438.72;5081858;28;20052;-70
2024/01/11 02:54:06;;;;;;;188.85;64.70;;;;;;;7.48;nan;99443.06;5054365;28;20051;-70
2024/01/11 02:56:35;;;;;;;194.15;60.30;;;;;;;7.68;nan;99455.09;5049462;28;20720;-71
2024/01/11 02:59:05;;;;;;;192.07;65.25;;;;;;;7.72;nan;99462.66;5081102;28;20055;-70
2024/01/11 03:01:34;;;;;;;189.10;63.28;;;;;;;7.52;nan;99473.41;5076918;28;20063;-70
2024/01/11 03:04:04;;;;;;;181.38;62.30;;;;;;;7.72;nan;99474.06;5073701;28;20110;-69
2024/01/11 03:06:33;;;;;;;192.73;62.85;;;;;;;7.34;nan;99477.09;5061071;28;20456;-69
2024/01/11 03:09:03;;;;;;;177.35;60.63;;;;;;;7.54;nan;99484.63;5071740;28;20048;-70
2024/01/11 03:11:33;;;;;;;177.45;59.97;;;;;;;7.71;nan;99490.00;5070332;28;20067;-69
2024/01/11 03:14:02;;;;;;;184.93;63.22;;;;;;;7.93;nan;99500.03;5080250;28;20052;-69
2024/01/11 03:16:32;;;;;;;173.93;62.22;;;;;;;7.76;nan;99506.19;5085049;28;20133;-69
2024/01/11 03:19:02;;;;;;;182.75;62.63;;;;;;;7.81;nan;99507.41;5081467;28;20443;-70
2024/01/11 03:21:31;;;;;;;190.82;62.03;;;;;;;7.60;nan;99513.03;5067402;28;20483;-69
2024/01/11 03:24:01;;;;;;;181.50;61.00;;;;;;;7.55;nan;99517.94;5067659;28;20089;-69
2024/01/11 03:26:31;;;;;;;185.90;60.28;;;;;;;7.70;nan;99514.75;5078065;28;20060;-69
2024/01/11 03:29:00;;;;;;;190.38;61.47;;;;;;;7.71;nan;99519.00;5067836;28;20143;-70
2024/01/11 03:31:30;;;;;;;187.32;60.80;;;;;;;7.83;nan;99517.81;5076601;28;20068;-69
2024/01/11 03:34:00;;;;;;;178.25;58.65;;;;;;;7.66;nan;99530.84;5055711;28;20049;-69
2024/01/11 03:36:29;;;;;;;179.10;57.58;;;;;;;7.62;nan;99542.69;5050200;28;20647;-70
2024/01/11 03:38:59;;;;;;;167.93;56.40;;;;;;;7.65;nan;99537.13;5084229;28;20038;-69
2024/01/11 03:41:28;;;;;;;180.30;60.13;;;;;;;7.84;nan;99536.09;5081811;28;20078;-69
2024/01/11 03:43:57;;;;;;;174.25;59.67;;;;;;;7.84;nan;99544.00;5084755;28;20040;-69
2024/01/11 03:46:27;;;;;;;155.85;52.78;;;;;;;7.75;nan;99546.72;5084492;28;20113;-69
2024/01/11 03:48:56;;;;;;;170.52;56.55;;;;;;;7.58;nan;99548.41;5080725;28;20048;-69
2024/01/11 03:51:26;;;;;;;162.95;55.08;;;;;;;7.75;nan;99550.19;5072128;28;20406;-69
2024/01/11 03:53:56;;;;;;;167.75;56.83;;;;;;;7.88;nan;99547.97;5077886;28;20040;-69
2024/01/11 03:56:26;;;;;;;152.35;52.72;;;;;;;7.88;nan;99565.59;5075980;28;20051;-69
2024/01/11 03:58:55;;;;;;;165.77;56.65;;;;;;;7.74;nan;99561.75;5082241;28;20055;-69
2024/01/11 04:01:24;;;;;;;155.95;54.35;;;;;;;7.64;nan;99564.47;5058533;28;20059;-69
2024/01/11 04:03:54;;;;;;;143.30;50.90;;;;;;;7.69;nan;99566.63;5076476;28;20739;-69
2024/01/11 04:06:25;;;;;;;163.63;55.20;;;;;;;7.51;nan;99577.19;5083834;28;20052;-69
2024/01/11 04:08:54;;;;;;;165.80;56.35;;;;;;;7.70;nan;99583.28;5084582;28;20044;-69
2024/01/11 04:11:28;;;;;;;154.75;54.38;;;;;;;7.94;nan;99586.94;5083745;28;21619;-67
2024/01/11 04:13:58;;;;;;;165.88;55.97;;;;;;;8.35;nan;99588.06;5078280;28;20052;-67
2024/01/11 04:16:27;;;;;;;163.25;53.10;;;;;;;7.93;nan;99587.06;5080184;28;20689;-67
2024/01/11 04:18:56;;;;;;;171.85;55.65;;;;;;;7.67;nan;99590.50;5075156;28;20072;-67
2024/01/11 04:21:30;;;;;;;160.15;56.28;;;;;;;7.75;nan;99602.09;5080786;28;20067;-67
2024/01/11 04:23:59;;;;;;;;;;;;;;;7.98;nan;99596.19;5061440;28;20211;-67
2024/01/11 04:26:29;;;;;;;154.23;53.88;;;;;;;8.21;nan;99595.69;5084019;28;19930;-67
2024/01/11 04:28:59;;;;;;;162.05;56.58;;;;;;;8.34;nan;99598.75;5070174;28;20036;-67
2024/01/11 04:31:29;;;;;;;165.13;55.42;;;;;;;8.08;nan;99610.13;5078262;28;20041;-67
2024/01/11 04:33:59;;;;;;;174.57;53.40;;;;;;;8.36;nan;99615.28;5075044;28;20052;-67
2024/01/11 04:36:30;;;;;;;169.50;57.25;;;;;;;8.35;nan;99619.72;5065376;28;20052;-67
2024/01/11 04:38:59;;;;;;;168.80;56.33;;;;;;;8.35;nan;99611.81;5075261;28;20105;-67
2024/01/11 04:41:29;;;;;;;160.95;55.72;;;;;;;8.61;nan;99614.41;5082697;28;20052;-67
2024/01/11 04:43:59;;;;;;;162.93;59.78;;;;;;;8.89;nan;99621.16;5080325;28;20086;-67
2024/01/11 04:46:28;;;;;;;155.60;53.90;;;;;;;8.69;nan;99638.22;5080003;28;20139;-67
2024/01/11 04:48:58;;;;;;;174.15;57.40;;;;;;;8.86;nan;99629.38;5051310;28;20055;-67
2024/01/11 04:51:27;;;;;;;163.07;57.60;;;;;;;8.93;nan;99629.59;5082454;28;20649;-67
2024/01/11 04:53:57;;;;;;;180.25;58.03;;;;;;;8.90;nan;99632.53;5066180;28;20131;-67
2024/01/11 04:56:26;;;;;;;166.15;56.78;;;;;;;8.92;nan;99639.31;5084951;28;20064;-67
2024/01/11 04:58:56;;;;;;;164.88;58.63;;;;;;;9.14;nan;99637.91;5085571;28;20052;-67
2024/01/11 05:01:25;;;;;;;167.30;58.42;;;;;;;9.05;nan;99640.69;5082828;28;20040;-66
2024/01/11 05:03:54;;;;;;;169.32;61.67;;;;;;;9.06;nan;99637.06;5066770;28;20082;-67
2024/01/11 05:06:24;;;;;;;167.10;59.40;;;;;;;9.12;nan;99641.69;5082792;28;20127;-67
2024/01/11 05:08:54;;;;;;;164.73;57.55;;;;;;;9.15;nan;99649.31;5074355;28;20036;-67
2024/01/11 05:11:24;;;;;;;180.82;61.45;;;;;;;9.52;nan;99644.44;5079043;28;20048;-67
2024/01/11 05:13:54;;;;;;;174.75;59.83;;;;;;;9.44;nan;99652.38;5069897;28;20129;-67
2024/01/11 05:16:26;;;;;;;163.30;57.30;;;;;;;9.48;nan;99649.25;5067256;28;20055;-67
2024/01/11 05:18:57;;;;;;;151.93;56.65;;;;;;;9.58;nan;99649.09;5078030;28;20043;-67
2024/01/11 05:21:27;;;;;;;149.93;55.08;;;;;;;9.67;nan;99650.75;5080714;28;20506;-67
2024/01/11 05:23:56;;;;;;;148.23;54.10;;;;;;;9.36;nan;99652.34;5073595;28;20048;-68
2024/01/11 05:26:26;;;;;;;152.13;57.38;;;;;;;9.59;nan;99639.34;5074839;28;20490;-68
2024/01/11 05:28:56;;;;;;;157.57;56.50;;;;;;;9.64;nan;99643.16;5073959;28;20060;-66
2024/01/11 05:31:25;;;;;;;146.75;53.17;;;;;;;9.59;nan;99644.63;5078459;28;20048;-66
2024/01/11 05:33:54;;;;;;;127.32;53.30;;;;;;;9.87;nan;99641.50;5083167;28;20048;-67
2024/01/11 05:36:24;;;;;;;143.43;57.90;;;;;;;9.73;nan;99641.34;5080587;28;20051;-65
2024/01/11 05:38:54;;;;;;;131.10;49.88;;;;;;;9.90;nan;99629.78;5082104;28;20055;-66
2024/01/11 05:41:24;;;;;;;142.95;53.58;;;;;;;10.06;nan;99636.88;5079599;28;20781;-69
2024/01/11 05:43:54;;;;;;;137.38;53.78;;;;;;;10.45;nan;99642.31;5082465;28;20662;-69
2024/01/11 05:46:24;;;;;;;129.13;54.30;;;;;;;10.49;nan;99639.16;5066898;28;20047;-70
2024/01/11 05:48:55;;;;;;;143.50;53.58;;;;;;;10.80;nan;99642.72;5085434;28;20050;-69
2024/01/11 05:51:24;;;;;;;138.27;54.05;;;;;;;10.98;nan;99631.06;5085532;28;20047;-70
2024/01/11 05:53:55;;;;;;;132.82;55.15;;;;;;;10.18;nan;99623.16;5086786;28;20054;-70
2024/01/11 05:56:24;;;;;;;130.63;54.63;;;;;;;9.94;nan;99631.09;5084198;28;20058;-69
2024/01/11 05:58:54;;;;;;;127.00;52.80;;;;;;;10.29;nan;99622.84;5085115;28;20143;-69
2024/01/11 06:01:23;;;;;;;128.70;52.00;;;;;;;10.39;nan;99619.19;5088310;28;20058;-69
2024/01/11 06:03:53;;;;;;;124.57;51.85;;;;;;;10.93;nan;99609.59;5088303;28;20048;-69
2024/01/11 06:06:22;;;;;;;129.88;54.72;;;;;;;11.15;nan;99606.97;5086594;28;20056;-65
2024/01/11 06:08:52;;;;;;;135.43;54.92;;;;;;;11.18;nan;99600.50;5078486;28;20047;-68
2024/01/11 06:11:23;;;;;;;126.93;54.58;;;;;;;11.58;nan;99605.56;5085434;28;20155;-68
2024/01/11 06:13:54;;;;;;;133.18;55.83;;;;;;;11.41;nan;99588.09;5066125;28;20070;-69
2024/01/11 06:16:23;;;;;;;125.88;54.88;;;;;;;11.92;nan;99589.22;5088936;28;20050;-74
2024/01/11 06:18:52;;;;;;;127.13;52.47;;;;;;;11.78;nan;99579.38;5091834;28;20086;-71
2024/01/11 06:21:22;;;;;;;113.80;51.75;;;;;;;11.94;nan;99581.91;5091531;28;20035;-71
2024/01/11 06:23:51;;;;;;;125.50;52.63;;;;;;;12.24;nan;99566.84;5093011;28;20052;-70
2024/01/11 06:26:23;;;;;;;128.10;52.95;;;;;;;12.23;nan;99551.91;5096718;28;20044;-72
2024/01/11 06:28:52;;;;;;;126.55;54.75;;;;;;;12.24;nan;99548.25;5090115;28;20056;-71
2024/01/11 06:31:22;;;;;;;118.18;51.15;;;;;;;11.96;nan;99552.50;5061519;28;20071;-67
2024/01/11 06:33:51;;;;;;;127.57;52.63;;;;;;;12.27;nan;99544.41;5077837;28;20044;-67
2024/01/11 06:36:21;;;;;;;125.97;54.85;;;;;;;12.61;nan;99537.53;5077989;28;20044;-70
2024/01/11 06:38:51;;;;;;;123.38;54.92;;;;;;;12.56;nan;99537.28;5083893;28;20125;-68
2024/01/11 06:41:20;;;;;;;125.10;54.70;;;;;;;12.97;nan;99531.41;5080425;28;20113;-70
2024/01/11 06:43:50;;;;;;;133.27;58.20;;;;;;;13.17;nan;99531.66;5066709;28;20047;-70
2024/01/11 06:46:21;;;;;;;137.15;59.40;;;;;;;13.15;nan;99526.53;5058649;28;20479;-69
2024/01/11 06:48:52;;;;;;;136.48;60.15;;;;;;;13.02;nan;99523.69;5062018;28;20290;-69
2024/01/11 06:51:24;;;;;;;134.65;58.78;;;;;;;13.54;nan;99528.78;5075393;28;20056;-68
2024/01/11 06:53:54;;;;;;;148.05;64.05;;;;;;;12.69;nan;99528.63;5080292;28;20048;-66
2024/01/11 06:56:23;;;;;;;145.65;64.25;;;;;;;13.15;nan;99523.88;5062547;28;20750;-68
2024/01/11 06:58:54;;;;;;;173.60;70.78;;;;;;;12.68;nan;99521.66;5083198;28;20044;-69
2024/01/11 07:01:24;;;;;;;173.13;71.18;;;;;;;12.71;nan;99518.63;5082876;28;20047;-70
2024/01/11 07:03:54;;;;;;;175.30;74.57;;;;;;;12.68;nan;99511.03;5065746;28;20068;-70
2024/01/11 07:06:24;;;;;;;186.70;79.50;;;;;;;13.07;nan;99519.47;5065555;28;20048;-70
2024/01/11 07:08:54;;;;;;;175.00;71.20;;;;;;;13.27;nan;99505.59;5065014;28;20040;-70
2024/01/11 07:11:24;;;;;;;183.85;78.43;;;;;;;13.12;nan;99507.47;5060687;28;20094;-68
2024/01/11 07:13:54;;;;;;;182.38;78.28;;;;;;;12.87;nan;99496.34;5064969;28;20041;-70
2024/01/11 07:16:23;;;;;;;194.65;81.75;;;;;;;12.79;nan;99491.16;5062981;28;20051;-71
2024/01/11 07:18:53;;;;;;;216.95;87.85;;;;;;;12.76;nan;99483.53;5063321;28;20132;-70
2024/01/11 07:21:31;;;;;;;242.70;96.93;;;;;;;12.75;nan;99482.69;5062137;28;20131;-67
2024/01/11 07:24:01;;;;;;;247.80;103.47;;;;;;;12.74;nan;99477.59;5064605;28;20045;-70
2024/01/11 07:26:31;;;;;;;230.50;98.85;;;;;;;13.32;nan;99474.72;5063631;28;20044;-70
2024/01/11 07:29:01;;;;;;;278.25;111.82;;;;;;;13.19;nan;99468.47;5062167;28;20071;-70
2024/01/11 07:31:30;;;;;;;304.75;123.93;;;;;;;13.44;nan;99459.06;5062951;28;20048;-70
2024/01/11 07:34:00;;;;;;;281.55;119.88;;;;;;;13.43;nan;99452.09;5061282;28;20075;-70
2024/01/11 07:36:29;;;;;;;296.10;126.80;;;;;;;13.04;nan;99457.88;5063067;28;20133;-71
2024/01/11 07:38:59;;;;;;;310.85;132.23;;;;;;;13.32;nan;99442.78;5064300;28;20048;-70
2024/01/11 07:41:29;;;;;;;325.25;135.40;;;;;;;13.12;nan;99431.16;5062825;28;20544;-69
2024/01/11 07:43:59;;;;;;;320.77;135.68;;;;;;;13.48;nan;99421.25;5061825;28;20128;-70
2024/01/11 07:46:29;;;;;;;343.75;142.98;;;;;;;13.70;nan;99429.19;5065743;28;20049;-70
2024/01/11 07:49:06;;;;;;;342.58;139.38;;;;;;;13.60;nan;99418.88;5063247;28;20487;-70
2024/01/11 07:51:36;;;;;;;345.02;138.02;;;;;;;13.22;nan;99421.03;5053931;28;20060;-69
2024/01/11 07:54:05;;;;;;;336.60;142.02;;;;;;;13.52;nan;99410.22;5060050;28;20052;-70
2024/01/11 07:56:35;;;;;;;323.38;133.50;;;;;;;12.93;nan;99407.84;5065380;28;20067;-71
2024/01/11 07:59:04;;;;;;;328.90;132.10;;;;;;;13.24;nan;99416.34;5046214;28;20083;-70
2024/01/11 08:01:35;;;;;;;311.33;133.20;;;;;;;12.87;nan;99416.59;5045317;28;20360;-69
2024/01/11 08:04:05;;;;;;;317.85;128.20;;;;;;;13.18;nan;99416.28;5059270;28;20048;-70
2024/01/11 08:06:34;;;;;;;309.88;125.97;;;;;;;13.16;nan;99408.50;5036689;28;20044;-70
2024/01/11 08:09:04;;;;;;;296.20;124.38;;;;;;;12.78;nan;99402.59;5062584;28;20048;-66
2024/01/11 08:11:34;;;;;;;309.80;127.00;;;;;;;12.71;nan;99414.97;5044712;28;20063;-66
2024/01/11 08:14:06;;;;;;;316.13;125.53;;;;;;;12.95;nan;99408.47;5062729;28;20052;-69
2024/01/11 08:16:36;;;;;;;292.30;123.07;;;;;;;13.28;nan;99417.59;5045751;28;20460;-72
2024/01/11 08:19:05;;;;;;;296.30;118.97;;;;;;;13.27;nan;99415.97;5062409;28;20056;-68
2024/01/11 08:21:35;;;;;;;276.85;116.93;;;;;;;13.25;nan;99410.00;5060970;28;20129;-68
2024/01/11 08:24:04;;;;;;;292.80;115.45;;;;;;;13.31;nan;99401.28;5061407;28;20052;-67
2024/01/11 08:26:34;;;;;;;279.60;114.57;;;;;;;13.67;nan;99401.13;5063436;28;20044;-68
2024/01/11 08:29:04;;;;;;;269.83;111.60;;;;;;;13.80;nan;99389.72;5061877;28;20462;-69
2024/01/11 08:31:34;;;;;;;272.75;114.28;;;;;;;13.98;nan;99402.53;5064494;28;20044;-68
2024/01/11 08:34:06;;;;;;;273.08;114.95;;;;;;;13.55;nan;99407.16;5063432;28;20507;-69
2024/01/11 08:36:38;;;;;;;266.90;111.65;;;;;;;13.16;nan;99405.84;5063414;28;20163;-68
2024/01/11 08:39:12;;;;;;;278.90;114.68;;;;;;;13.52;nan;99402.22;5062267;28;20044;-68
2024/01/11 08:41:42;;;;;;;270.90;109.60;;;;;;;13.53;nan;99393.22;5066960;28;20044;-68
2024/01/11 08:44:11;;;;;;;279.05;111.40;;;;;;;13.56;nan;99390.16;5054725;28;20477;-68
2024/01/11 08:46:40;;;;;;;251.60;107.32;;;;;;;13.78;nan;99381.09;5067630;28;20070;-68
2024/01/11 08:49:10;;;;;;;254.63;105.75;;;;;;;13.59;nan;99374.63;5054906;28;20052;-68
2024/01/11 08:51:39;;;;;;;257.52;105.07;;;;;;;13.42;nan;99374.13;5058377;28;20132;-69
2024/01/11 08:54:11;;;;;;;251.23;104.80;;;;;;;13.70;nan;99383.91;5052768;28;20404;-68
2024/01/11 08:56:41;;;;;;;241.23;103.43;;;;;;;13.53;nan;99380.75;5068372;28;20441;-68
2024/01/11 08:59:10;;;;;;;273.67;107.78;;;;;;;13.47;nan;99373.53;5062124;28;20064;-68
2024/01/11 09:01:40;;;;;;;264.42;108.53;;;;;;;13.54;nan;99369.09;5062666;28;20131;-68
2024/01/11 09:04:17;;;;;;;263.92;109.97;;;;;;;13.48;nan;99365.38;5043173;28;20432;-68
2024/01/11 09:06:47;;;;;;;271.95;110.10;;;;;;;13.49;nan;99359.03;5063525;28;20452;-69
2024/01/11 09:09:17;;;;;;;252.90;104.32;;;;;;;13.64;nan;99358.06;5061296;28;20048;-68
2024/01/11 09:11:46;;;;;;;261.08;105.95;;;;;;;13.62;nan;99350.31;5062456;28;20139;-68
2024/01/11 09:14:16;;;;;;;274.70;110.18;;;;;;;13.15;nan;99358.97;5061014;28;20127;-68
2024/01/11 09:16:48;;;;;;;257.67;107.07;;;;;;;13.29;nan;99363.38;5045713;28;20048;-68
2024/01/11 09:19:18;;;;;;;265.90;109.25;;;;;;;13.32;nan;99357.66;5070419;28;20052;-68
2024/01/11 09:21:47;;;;;;;248.63;105.28;;;;;;;13.60;nan;99340.84;5075336;28;20048;-68
2024/01/11 09:24:17;;;;;;;276.48;108.55;;;;;;;13.62;nan;99339.66;5064535;28;20139;-68
2024/01/11 09:26:46;;;;;;;253.55;104.85;;;;;;;13.55;nan;99338.78;5070747;28;20044;-68
2024/01/11 09:29:15;;;;;;;263.65;106.43;;;;;;;13.67;nan;99347.88;5063568;28;20041;-69
2024/01/11 09:31:45;;;;;;;257.33;104.70;;;;;;;13.75;nan;99355.69;5067001;28;20595;-68
2024/01/11 09:34:14;;;;;;;257.88;104.28;;;;;;;13.71;nan;99358.94;5069440;28;20563;-68
2024/01/11 09:36:45;;;;;;;252.27;104.05;;;;;;;13.47;nan;99346.91;5058021;28;20137;-68
2024/01/11 09:39:14;;;;;;;258.10;103.93;;;;;;;13.60;nan;99347.00;5070843;28;20052;-68
2024/01/11 09:41:58;;;;;;;265.77;108.97;;;;;;;13.81;nan;99346.91;5046860;28;20131;-69
2024/01/11 09:44:27;;;;;;;;;;;;;;;13.89;nan;99348.59;5062534;28;20593;-69
2024/01/11 09:46:59;;;;;;;251.32;101.55;;;;;;;13.60;nan;99351.50;5065594;28;19986;-68
2024/01/11 09:49:30;;;;;;;235.75;101.75;;;;;;;13.74;nan;99350.56;5073250;28;20063;-67
2024/01/11 09:52:02;;;;;;;254.32;102.82;;;;;;;13.85;nan;99345.50;5070972;28;20044;-65
2024/01/11 09:54:31;;;;;;;240.50;101.07;;;;;;;13.64;nan;99344.75;5053283;28;20079;-63
2024/01/11 09:57:03;;;;;;;269.42;105.47;;;;;;;13.58;nan;99340.25;5063800;28;20142;-68
2024/01/11 09:59:34;;;;;;;269.27;104.68;;;;;;;13.60;nan;99324.88;5070466;28;20123;-69
2024/01/11 10:02:08;;;;;;;265.55;106.07;;;;;;;13.75;nan;99329.06;5054760;28;20538;-69
2024/01/11 10:04:37;;;;;;;258.30;104.68;;;;;;;13.78;nan;99311.88;5067811;28;20047;-68
2024/01/11 10:07:09;;;;;;;256.88;105.28;;;;;;;13.85;nan;99310.09;5079965;28;20048;-67
2024/01/11 10:09:38;;;;;;;249.90;100.63;;;;;;;13.67;nan;99310.63;5085940;28;20046;-68
2024/01/11 10:12:09;;;;;;;239.98;97.85;;;;;;;13.65;nan;99306.50;5087445;28;20047;-66
2024/01/11 10:14:38;;;;;;;231.60;96.25;;;;;;;13.51;nan;99310.91;5086034;28;20051;-69
2024/01/11 10:17:08;;;;;;;229.18;92.50;;;;;;;13.41;nan;99302.47;5089890;28;20896;-68
2024/01/11 10:19:42;;;;;;;227.93;94.60;;;;;;;13.75;nan;99313.09;5083594;28;20087;-68
2024/01/11 10:22:16;;;;;;;239.75;95.65;;;;;;;13.95;nan;99313.19;5080101;28;20105;-68
2024/01/11 10:24:46;;;;;;;232.63;94.05;;;;;;;13.78;nan;99319.88;5078973;28;20048;-68
2024/01/11 10:27:15;;;;;;;235.80;96.57;;;;;;;13.53;nan;99314.22;5082773;28;20055;-68
2024/01/11 10:29:46;;;;;;;228.45;93.90;;;;;;;13.74;nan;99315.97;5086964;28;20478;-68
2024/01/11 10:32:15;;;;;;;231.23;90.40;;;;;;;13.93;nan;99313.41;5057162;28;20043;-68
2024/01/11 10:34:44;;;;;;;225.60;93.28;;;;;;;13.93;nan;99309.91;5083201;28;20518;-67
2024/01/11 10:37:14;;;;;;;219.45;90.13;;;;;;;13.67;nan;99315.94;5091639;28;20109;-68
2024/01/11 10:39:44;;;;;;;215.32;88.55;;;;;;;13.48;nan;99314.81;5094792;28;20134;-68
2024/01/11 10:42:17;;;;;;;220.38;92.65;;;;;;;13.47;nan;99307.00;5089599;28;20135;-68
2024/01/11 10:44:47;;;;;;;;;;;;;;;13.35;nan;99306.75;5093015;28;20051;-69
2024/01/11 10:47:20;;;;;;;219.48;87.25;;;;;;;13.35;nan;99301.44;5088342;28;19924;-67
2024/01/11 10:49:52;;;;;;;218.43;87.33;;;;;;;13.35;nan;99304.09;5076336;28;20055;-64
2024/01/11 10:52:28;;;;;;;227.00;89.15;;;;;;;13.18;nan;99304.59;5087235;28;20423;-63
2024/01/11 10:54:59;;;;;;;212.10;88.05;;;;;;;13.36;nan;99296.94;5088909;28;20277;-66
2024/01/11 10:57:32;;;;;;;228.63;86.22;;;;;;;13.37;nan;99299.38;5093060;28;20108;-68
2024/01/11 11:00:05;;;;;;;206.40;81.82;;;;;;;13.27;nan;99301.59;5090759;28;20120;-67
2024/01/11 11:02:36;;;;;;;200.93;80.15;;;;;;;13.24;nan;99293.97;5094392;28;20032;-66
2024/01/11 11:05:09;;;;;;;193.30;78.78;;;;;;;13.19;nan;99291.06;5091616;28;20059;-67
2024/01/11 11:07:39;;;;;;;;;;;;;;;13.21;nan;99282.91;5076960;28;20051;-69
2024/01/11 11:10:10;;;;;;;186.20;75.82;;;;;;;13.13;nan;99285.72;4738751;28;9999681;-68
2024/01/11 11:12:42;;;;;;;199.43;77.57;;;;;;;12.90;nan;99286.75;5088409;28;20040;-66
2024/01/11 11:15:13;;;;;;;186.63;74.40;;;;;;;12.95;nan;99275.53;5084614;28;20043;-67
2024/01/11 11:17:45;;;;;;;184.70;72.95;;;;;;;12.94;nan;99269.41;5084950;28;20050;-66
2024/01/11 11:20:16;;;;;;;188.25;74.72;;;;;;;12.84;nan;99270.75;5043846;28;21395;-65
2024/01/11 11:23:03;;;;;;;183.00;72.85;;;;;;;12.72;nan;99266.97;5081026;28;20032;-65
2024/01/11 11:25:35;;;;;;;173.85;72.78;;;;;;;12.82;nan;99262.97;5083409;28;20036;-67
2024/01/11 11:28:05;;;;;;;181.52;74.68;;;;;;;12.89;nan;99255.03;5087543;28;20478;-65
2024/01/11 11:30:38;;;;;;;176.25;72.95;;;;;;;12.79;nan;99235.97;5093030;28;20059;-68
2024/01/11 11:33:19;;;;;;;178.20;72.07;;;;;;;12.58;nan;99239.47;5092272;28;20439;-65
2024/01/11 11:35:56;;;;;;;184.70;73.07;;;;;;;12.69;nan;99233.66;5091859;28;20058;-66
2024/01/11 11:38:31;;;;;;;178.38;73.65;;;;;;;12.80;nan;99225.13;5088103;28;20055;-68
2024/01/11 11:41:01;;;;;;;179.70;74.05;;;;;;;12.54;nan;99225.75;5093173;28;20036;-66
2024/01/11 11:43:32;;;;;;;191.35;74.38;;;;;;;12.40;nan;99216.03;5092229;28;20047;-66